sensor_id;sensor_type;location;lat;lon;timestamp;P1;durP1;ratioP1;P2;durP2;ratioP2
64252;SDS011;50592;52.958;-7.470;2022-10-16T00:01:45;1.55;;;0.60;;
64252;SDS011;50592;52.958;-7.470;2022-10-16T00:04:15;5.97;;;0.70;;
64252;SDS011;50592;52.958;-7.470;2022-10-16T00:06:45;1.85;;;0.45;;
64252;SDS011;50592;52.958;-7.470;2022-10-16T00:09:12;3.65;;;1.50;;
64252;SDS011;50592;52.958;-7.470;2022-10-16T00:11:42;3.45;;;0.57;;
64252;SDS011;50592;52.958;-7.470;2022-10-16T00:14:13;2.22;;;0.80;;
64252;SDS011;50592;52.958;-7.470;2022-10-16T00:16:41;2.28;;;0.55;;
64252;SDS011;50592;52.958;-7.470;2022-10-16T00:19:11;4.70;;;0.73;;
64252;SDS011;50592;52.958;-7.470;2022-10-16T00:21:38;7.20;;;1.10;;
64252;SDS011;50592;52.958;-7.470;2022-10-16T00:26:52;7.55;;;0.88;;
64252;SDS011;50592;52.958;-7.470;2022-10-16T00:29:21;6.38;;;1.40;;
64252;SDS011;50592;52.958;-7.470;2022-10-16T00:31:48;3.85;;;0.90;;
64252;SDS011;50592;52.958;-7.470;2022-10-16T00:34:17;3.90;;;0.80;;
64252;SDS011;50592;52.958;-7.470;2022-10-16T00:36:44;5.55;;;0.90;;
64252;SDS011;50592;52.958;-7.470;2022-10-16T00:39:13;3.28;;;0.70;;
64252;SDS011;50592;52.958;-7.470;2022-10-16T00:41:39;3.50;;;0.75;;
64252;SDS011;50592;52.958;-7.470;2022-10-16T00:47:24;2.10;;;0.60;;
64252;SDS011;50592;52.958;-7.470;2022-10-16T00:50:13;6.05;;;0.73;;
64252;SDS011;50592;52.958;-7.470;2022-10-16T00:52:48;6.60;;;1.25;;
64252;SDS011;50592;52.958;-7.470;2022-10-16T00:55:17;2.22;;;0.45;;
64252;SDS011;50592;52.958;-7.470;2022-10-16T00:57:46;5.97;;;0.80;;
64252;SDS011;50592;52.958;-7.470;2022-10-16T01:00:18;5.00;;;0.73;;
64252;SDS011;50592;52.958;-7.470;2022-10-16T01:05:21;1.73;;;0.47;;
64252;SDS011;50592;52.958;-7.470;2022-10-16T01:10:33;5.55;;;0.75;;
64252;SDS011;50592;52.958;-7.470;2022-10-16T01:13:08;3.20;;;0.45;;
64252;SDS011;50592;52.958;-7.470;2022-10-16T01:18:37;4.57;;;0.82;;
64252;SDS011;50592;52.958;-7.470;2022-10-16T01:21:28;3.10;;;0.32;;
64252;SDS011;50592;52.958;-7.470;2022-10-16T01:40:32;3.10;;;0.28;;
64252;SDS011;50592;52.958;-7.470;2022-10-16T01:43:03;3.20;;;0.20;;
64252;SDS011;50592;52.958;-7.470;2022-10-16T01:46:00;1.65;;;0.15;;
64252;SDS011;50592;52.958;-7.470;2022-10-16T01:48:27;3.13;;;0.25;;
64252;SDS011;50592;52.958;-7.470;2022-10-16T01:51:04;1.95;;;0.28;;
64252;SDS011;50592;52.958;-7.470;2022-10-16T01:53:37;4.47;;;0.40;;
64252;SDS011;50592;52.958;-7.470;2022-10-16T01:56:09;1.65;;;0.30;;
64252;SDS011;50592;52.958;-7.470;2022-10-16T01:58:42;1.42;;;0.10;;
64252;SDS011;50592;52.958;-7.470;2022-10-16T02:01:19;1.40;;;0.20;;
64252;SDS011;50592;52.958;-7.470;2022-10-16T02:03:53;3.20;;;0.30;;
64252;SDS011;50592;52.958;-7.470;2022-10-16T02:06:28;2.47;;;0.38;;
64252;SDS011;50592;52.958;-7.470;2022-10-16T02:08:58;8.70;;;0.85;;
64252;SDS011;50592;52.958;-7.470;2022-10-16T02:11:28;3.80;;;0.60;;
64252;SDS011;50592;52.958;-7.470;2022-10-16T02:14:00;1.75;;;0.30;;
64252;SDS011;50592;52.958;-7.470;2022-10-16T02:16:43;2.65;;;0.47;;
64252;SDS011;50592;52.958;-7.470;2022-10-16T02:19:14;3.03;;;0.40;;
64252;SDS011;50592;52.958;-7.470;2022-10-16T02:21:51;9.73;;;0.68;;
64252;SDS011;50592;52.958;-7.470;2022-10-16T02:24:39;5.40;;;0.47;;
64252;SDS011;50592;52.958;-7.470;2022-10-16T02:30:11;3.20;;;0.85;;
64252;SDS011;50592;52.958;-7.470;2022-10-16T02:32:48;3.95;;;0.82;;
64252;SDS011;50592;52.958;-7.470;2022-10-16T02:35:17;5.18;;;0.40;;
64252;SDS011;50592;52.958;-7.470;2022-10-16T02:37:49;1.90;;;0.30;;
64252;SDS011;50592;52.958;-7.470;2022-10-16T02:40:20;4.80;;;0.50;;
64252;SDS011;50592;52.958;-7.470;2022-10-16T02:42:51;4.85;;;0.70;;
64252;SDS011;50592;52.958;-7.470;2022-10-16T02:45:22;2.85;;;0.52;;
64252;SDS011;50592;52.958;-7.470;2022-10-16T02:47:52;4.25;;;0.50;;
64252;SDS011;50592;52.958;-7.470;2022-10-16T02:50:22;3.00;;;0.30;;
64252;SDS011;50592;52.958;-7.470;2022-10-16T02:52:53;3.35;;;0.50;;
64252;SDS011;50592;52.958;-7.470;2022-10-16T02:55:23;2.13;;;0.57;;
64252;SDS011;50592;52.958;-7.470;2022-10-16T02:57:49;1.38;;;0.30;;
64252;SDS011;50592;52.958;-7.470;2022-10-16T03:00:19;3.92;;;0.52;;
64252;SDS011;50592;52.958;-7.470;2022-10-16T03:02:46;3.90;;;0.30;;
64252;SDS011;50592;52.958;-7.470;2022-10-16T03:05:16;6.15;;;0.43;;
64252;SDS011;50592;52.958;-7.470;2022-10-16T03:07:43;4.38;;;0.30;;
64252;SDS011;50592;52.958;-7.470;2022-10-16T03:10:11;4.10;;;0.30;;
64252;SDS011;50592;52.958;-7.470;2022-10-16T03:12:38;4.20;;;0.55;;
64252;SDS011;50592;52.958;-7.470;2022-10-16T03:15:08;2.55;;;0.43;;
64252;SDS011;50592;52.958;-7.470;2022-10-16T03:17:35;3.92;;;0.25;;
64252;SDS011;50592;52.958;-7.470;2022-10-16T03:20:05;3.40;;;0.20;;
64252;SDS011;50592;52.958;-7.470;2022-10-16T03:22:32;7.03;;;0.30;;
64252;SDS011;50592;52.958;-7.470;2022-10-16T03:25:02;4.28;;;0.43;;
64252;SDS011;50592;52.958;-7.470;2022-10-16T03:27:32;3.40;;;0.32;;
64252;SDS011;50592;52.958;-7.470;2022-10-16T03:30:02;5.00;;;0.50;;
64252;SDS011;50592;52.958;-7.470;2022-10-16T03:32:29;2.70;;;0.32;;
64252;SDS011;50592;52.958;-7.470;2022-10-16T03:34:59;4.55;;;0.20;;
64252;SDS011;50592;52.958;-7.470;2022-10-16T03:37:26;1.33;;;0.30;;
64252;SDS011;50592;52.958;-7.470;2022-10-16T03:39:55;2.45;;;0.30;;
64252;SDS011;50592;52.958;-7.470;2022-10-16T03:42:22;6.00;;;0.35;;
64252;SDS011;50592;52.958;-7.470;2022-10-16T03:44:51;3.40;;;1.02;;
64252;SDS011;50592;52.958;-7.470;2022-10-16T03:47:18;5.90;;;0.20;;
64252;SDS011;50592;52.958;-7.470;2022-10-16T03:49:49;8.32;;;0.73;;
64252;SDS011;50592;52.958;-7.470;2022-10-16T03:52:16;3.47;;;0.50;;
64252;SDS011;50592;52.958;-7.470;2022-10-16T03:54:46;2.05;;;0.20;;
64252;SDS011;50592;52.958;-7.470;2022-10-16T03:57:13;0.93;;;0.20;;
64252;SDS011;50592;52.958;-7.470;2022-10-16T03:59:42;4.35;;;0.40;;
64252;SDS011;50592;52.958;-7.470;2022-10-16T04:02:09;3.47;;;0.50;;
64252;SDS011;50592;52.958;-7.470;2022-10-16T04:04:38;5.07;;;0.73;;
64252;SDS011;50592;52.958;-7.470;2022-10-16T04:07:05;1.95;;;0.55;;
64252;SDS011;50592;52.958;-7.470;2022-10-16T04:09:35;1.90;;;0.50;;
64252;SDS011;50592;52.958;-7.470;2022-10-16T04:12:05;3.38;;;0.40;;
64252;SDS011;50592;52.958;-7.470;2022-10-16T04:14:34;5.60;;;0.30;;
64252;SDS011;50592;52.958;-7.470;2022-10-16T04:17:04;2.70;;;0.25;;
64252;SDS011;50592;52.958;-7.470;2022-10-16T04:19:34;4.65;;;1.73;;
64252;SDS011;50592;52.958;-7.470;2022-10-16T04:22:00;3.35;;;0.20;;
64252;SDS011;50592;52.958;-7.470;2022-10-16T04:24:30;0.82;;;0.20;;
64252;SDS011;50592;52.958;-7.470;2022-10-16T04:26:57;4.70;;;0.30;;
64252;SDS011;50592;52.958;-7.470;2022-10-16T04:29:26;1.45;;;0.22;;
64252;SDS011;50592;52.958;-7.470;2022-10-16T04:31:52;2.97;;;0.20;;
64252;SDS011;50592;52.958;-7.470;2022-10-16T04:34:22;1.83;;;0.20;;
64252;SDS011;50592;52.958;-7.470;2022-10-16T04:36:52;2.00;;;0.30;;
64252;SDS011;50592;52.958;-7.470;2022-10-16T04:39:19;2.47;;;0.30;;
64252;SDS011;50592;52.958;-7.470;2022-10-16T04:41:48;0.85;;;0.22;;
64252;SDS011;50592;52.958;-7.470;2022-10-16T04:44:15;1.33;;;0.30;;
64252;SDS011;50592;52.958;-7.470;2022-10-16T04:46:45;1.17;;;0.10;;
64252;SDS011;50592;52.958;-7.470;2022-10-16T04:49:15;4.82;;;0.50;;
64252;SDS011;50592;52.958;-7.470;2022-10-16T04:51:44;3.70;;;0.30;;
64252;SDS011;50592;52.958;-7.470;2022-10-16T04:54:14;3.08;;;0.20;;
64252;SDS011;50592;52.958;-7.470;2022-10-16T04:56:41;0.82;;;0.20;;
64252;SDS011;50592;52.958;-7.470;2022-10-16T04:59:16;6.07;;;0.30;;
64252;SDS011;50592;52.958;-7.470;2022-10-16T05:01:46;10.50;;;0.30;;
64252;SDS011;50592;52.958;-7.470;2022-10-16T05:04:17;3.50;;;0.38;;
64252;SDS011;50592;52.958;-7.470;2022-10-16T05:06:43;2.38;;;0.47;;
64252;SDS011;50592;52.958;-7.470;2022-10-16T05:09:13;3.47;;;0.40;;
64252;SDS011;50592;52.958;-7.470;2022-10-16T05:11:40;2.83;;;0.20;;
64252;SDS011;50592;52.958;-7.470;2022-10-16T05:14:09;2.20;;;0.30;;
64252;SDS011;50592;52.958;-7.470;2022-10-16T05:16:35;5.10;;;0.38;;
64252;SDS011;50592;52.958;-7.470;2022-10-16T05:19:05;3.30;;;0.40;;
64252;SDS011;50592;52.958;-7.470;2022-10-16T05:21:32;5.80;;;0.60;;
64252;SDS011;50592;52.958;-7.470;2022-10-16T05:24:01;2.58;;;0.47;;
64252;SDS011;50592;52.958;-7.470;2022-10-16T05:26:30;3.63;;;0.22;;
64252;SDS011;50592;52.958;-7.470;2022-10-16T05:28:58;3.78;;;0.30;;
64252;SDS011;50592;52.958;-7.470;2022-10-16T05:31:25;5.70;;;0.30;;
64252;SDS011;50592;52.958;-7.470;2022-10-16T05:33:58;6.13;;;0.25;;
64252;SDS011;50592;52.958;-7.470;2022-10-16T05:36:26;5.90;;;1.30;;
64252;SDS011;50592;52.958;-7.470;2022-10-16T05:38:54;1.98;;;0.50;;
64252;SDS011;50592;52.958;-7.470;2022-10-16T05:41:21;5.20;;;0.70;;
64252;SDS011;50592;52.958;-7.470;2022-10-16T05:43:53;4.93;;;0.68;;
64252;SDS011;50592;52.958;-7.470;2022-10-16T05:46:23;6.38;;;1.75;;
64252;SDS011;50592;52.958;-7.470;2022-10-16T05:48:53;6.03;;;1.85;;
64252;SDS011;50592;52.958;-7.470;2022-10-16T05:51:23;2.15;;;0.40;;
64252;SDS011;50592;52.958;-7.470;2022-10-16T05:53:53;3.78;;;0.43;;
64252;SDS011;50592;52.958;-7.470;2022-10-16T05:56:23;4.07;;;0.47;;
64252;SDS011;50592;52.958;-7.470;2022-10-16T05:58:51;1.23;;;0.28;;
64252;SDS011;50592;52.958;-7.470;2022-10-16T06:01:19;5.20;;;0.50;;
64252;SDS011;50592;52.958;-7.470;2022-10-16T06:03:52;2.28;;;0.50;;
64252;SDS011;50592;52.958;-7.470;2022-10-16T06:06:23;0.75;;;0.30;;
64252;SDS011;50592;52.958;-7.470;2022-10-16T06:08:52;6.38;;;0.43;;
64252;SDS011;50592;52.958;-7.470;2022-10-16T06:11:24;0.88;;;0.10;;
64252;SDS011;50592;52.958;-7.470;2022-10-16T06:13:53;3.95;;;1.30;;
64252;SDS011;50592;52.958;-7.470;2022-10-16T06:16:29;2.72;;;0.20;;
64252;SDS011;50592;52.958;-7.470;2022-10-16T06:18:56;3.28;;;0.30;;
64252;SDS011;50592;52.958;-7.470;2022-10-16T06:21:27;2.05;;;0.20;;
64252;SDS011;50592;52.958;-7.470;2022-10-16T06:23:55;0.57;;;0.25;;
64252;SDS011;50592;52.958;-7.470;2022-10-16T06:26:27;1.88;;;0.30;;
64252;SDS011;50592;52.958;-7.470;2022-10-16T06:28:58;5.07;;;0.40;;
64252;SDS011;50592;52.958;-7.470;2022-10-16T06:31:29;0.73;;;0.20;;
64252;SDS011;50592;52.958;-7.470;2022-10-16T06:34:01;1.92;;;0.45;;
64252;SDS011;50592;52.958;-7.470;2022-10-16T06:36:33;2.95;;;0.40;;
64252;SDS011;50592;52.958;-7.470;2022-10-16T06:39:00;3.83;;;0.38;;
64252;SDS011;50592;52.958;-7.470;2022-10-16T06:41:28;1.75;;;0.25;;
64252;SDS011;50592;52.958;-7.470;2022-10-16T06:43:57;7.43;;;0.52;;
64252;SDS011;50592;52.958;-7.470;2022-10-16T06:46:26;4.13;;;0.30;;
64252;SDS011;50592;52.958;-7.470;2022-10-16T06:48:53;1.17;;;0.10;;
64252;SDS011;50592;52.958;-7.470;2022-10-16T06:51:23;1.45;;;0.30;;
64252;SDS011;50592;52.958;-7.470;2022-10-16T06:53:51;0.60;;;0.30;;
64252;SDS011;50592;52.958;-7.470;2022-10-16T06:56:25;2.60;;;0.30;;
64252;SDS011;50592;52.958;-7.470;2022-10-16T06:58:53;2.83;;;0.30;;
64252;SDS011;50592;52.958;-7.470;2022-10-16T07:01:24;0.85;;;0.20;;
64252;SDS011;50592;52.958;-7.470;2022-10-16T07:03:54;2.60;;;0.30;;
64252;SDS011;50592;52.958;-7.470;2022-10-16T07:06:25;0.50;;;0.20;;
64252;SDS011;50592;52.958;-7.470;2022-10-16T07:08:56;1.08;;;0.22;;
64252;SDS011;50592;52.958;-7.470;2022-10-16T07:11:25;1.30;;;0.40;;
64252;SDS011;50592;52.958;-7.470;2022-10-16T07:13:53;2.67;;;0.22;;
64252;SDS011;50592;52.958;-7.470;2022-10-16T07:16:24;5.03;;;0.40;;
64252;SDS011;50592;52.958;-7.470;2022-10-16T07:18:58;1.48;;;0.20;;
64252;SDS011;50592;52.958;-7.470;2022-10-16T07:21:33;3.47;;;0.40;;
64252;SDS011;50592;52.958;-7.470;2022-10-16T07:24:10;0.50;;;0.20;;
64252;SDS011;50592;52.958;-7.470;2022-10-16T07:26:39;3.65;;;0.40;;
64252;SDS011;50592;52.958;-7.470;2022-10-16T07:29:17;1.65;;;0.38;;
64252;SDS011;50592;52.958;-7.470;2022-10-16T07:31:46;1.98;;;0.40;;
64252;SDS011;50592;52.958;-7.470;2022-10-16T07:34:17;6.13;;;0.43;;
64252;SDS011;50592;52.958;-7.470;2022-10-16T07:36:47;1.08;;;0.30;;
64252;SDS011;50592;52.958;-7.470;2022-10-16T07:39:17;8.15;;;0.60;;
64252;SDS011;50592;52.958;-7.470;2022-10-16T07:41:47;0.77;;;0.17;;
64252;SDS011;50592;52.958;-7.470;2022-10-16T07:44:17;5.65;;;0.40;;
64252;SDS011;50592;52.958;-7.470;2022-10-16T07:46:45;1.20;;;0.30;;
64252;SDS011;50592;52.958;-7.470;2022-10-16T07:49:14;2.47;;;0.30;;
64252;SDS011;50592;52.958;-7.470;2022-10-16T07:51:41;3.08;;;0.28;;
64252;SDS011;50592;52.958;-7.470;2022-10-16T07:54:11;3.03;;;0.30;;
64252;SDS011;50592;52.958;-7.470;2022-10-16T07:56:38;1.77;;;0.20;;
64252;SDS011;50592;52.958;-7.470;2022-10-16T07:59:07;0.73;;;0.10;;
64252;SDS011;50592;52.958;-7.470;2022-10-16T08:01:37;1.50;;;0.20;;
64252;SDS011;50592;52.958;-7.470;2022-10-16T08:04:07;1.40;;;0.43;;
64252;SDS011;50592;52.958;-7.470;2022-10-16T08:06:38;4.43;;;0.20;;
64252;SDS011;50592;52.958;-7.470;2022-10-16T08:09:09;1.52;;;0.30;;
64252;SDS011;50592;52.958;-7.470;2022-10-16T08:11:39;1.85;;;0.20;;
64252;SDS011;50592;52.958;-7.470;2022-10-16T08:14:05;1.23;;;0.22;;
64252;SDS011;50592;52.958;-7.470;2022-10-16T08:16:35;7.03;;;0.30;;
64252;SDS011;50592;52.958;-7.470;2022-10-16T08:19:02;2.80;;;0.40;;
64252;SDS011;50592;52.958;-7.470;2022-10-16T08:21:32;3.30;;;0.40;;
64252;SDS011;50592;52.958;-7.470;2022-10-16T08:23:58;3.25;;;0.50;;
64252;SDS011;50592;52.958;-7.470;2022-10-16T08:26:29;0.95;;;0.15;;
64252;SDS011;50592;52.958;-7.470;2022-10-16T08:28:59;0.85;;;0.38;;
64252;SDS011;50592;52.958;-7.470;2022-10-16T08:31:25;1.60;;;0.35;;
64252;SDS011;50592;52.958;-7.470;2022-10-16T08:33:55;3.30;;;0.77;;
64252;SDS011;50592;52.958;-7.470;2022-10-16T08:36:22;1.88;;;0.30;;
64252;SDS011;50592;52.958;-7.470;2022-10-16T08:38:52;1.90;;;0.40;;
64252;SDS011;50592;52.958;-7.470;2022-10-16T08:47:18;2.42;;;0.80;;
64252;SDS011;50592;52.958;-7.470;2022-10-16T08:50:02;3.55;;;0.77;;
64252;SDS011;50592;52.958;-7.470;2022-10-16T08:52:40;4.63;;;0.90;;
64252;SDS011;50592;52.958;-7.470;2022-10-16T08:55:29;1.63;;;0.80;;
64252;SDS011;50592;52.958;-7.470;2022-10-16T08:58:00;1.63;;;0.75;;
64252;SDS011;50592;52.958;-7.470;2022-10-16T09:00:30;5.72;;;1.42;;
64252;SDS011;50592;52.958;-7.470;2022-10-16T09:05:49;3.80;;;2.35;;
64252;SDS011;50592;52.958;-7.470;2022-10-16T09:13:53;7.93;;;2.85;;
64252;SDS011;50592;52.958;-7.470;2022-10-16T09:16:30;8.80;;;1.90;;
64252;SDS011;50592;52.958;-7.470;2022-10-16T09:21:53;2.85;;;1.30;;
64252;SDS011;50592;52.958;-7.470;2022-10-16T09:24:23;4.20;;;1.13;;
64252;SDS011;50592;52.958;-7.470;2022-10-16T09:26:55;3.13;;;1.35;;
64252;SDS011;50592;52.958;-7.470;2022-10-16T09:29:24;6.47;;;2.53;;
64252;SDS011;50592;52.958;-7.470;2022-10-16T09:31:52;7.38;;;2.38;;
64252;SDS011;50592;52.958;-7.470;2022-10-16T09:34:27;6.15;;;3.08;;
64252;SDS011;50592;52.958;-7.470;2022-10-16T09:37:03;6.55;;;3.10;;
64252;SDS011;50592;52.958;-7.470;2022-10-16T09:39:48;17.85;;;5.80;;
64252;SDS011;50592;52.958;-7.470;2022-10-16T09:42:33;14.30;;;7.15;;
64252;SDS011;50592;52.958;-7.470;2022-10-16T09:45:03;16.30;;;6.35;;
64252;SDS011;50592;52.958;-7.470;2022-10-16T09:47:35;13.73;;;6.68;;
64252;SDS011;50592;52.958;-7.470;2022-10-16T09:50:19;14.80;;;7.20;;
64252;SDS011;50592;52.958;-7.470;2022-10-16T09:53:07;10.93;;;4.75;;
64252;SDS011;50592;52.958;-7.470;2022-10-16T09:55:52;7.85;;;3.65;;
64252;SDS011;50592;52.958;-7.470;2022-10-16T09:58:23;10.25;;;3.90;;
64252;SDS011;50592;52.958;-7.470;2022-10-16T10:00:51;8.60;;;3.00;;
64252;SDS011;50592;52.958;-7.470;2022-10-16T10:03:38;6.47;;;3.22;;
64252;SDS011;50592;52.958;-7.470;2022-10-16T10:06:18;6.50;;;2.83;;
64252;SDS011;50592;52.958;-7.470;2022-10-16T10:09:26;5.72;;;2.58;;
64252;SDS011;50592;52.958;-7.470;2022-10-16T10:11:56;4.32;;;1.80;;
64252;SDS011;50592;52.958;-7.470;2022-10-16T10:14:37;6.57;;;2.22;;
64252;SDS011;50592;52.958;-7.470;2022-10-16T10:17:17;8.77;;;2.45;;
64252;SDS011;50592;52.958;-7.470;2022-10-16T10:19:47;11.63;;;2.08;;
64252;SDS011;50592;52.958;-7.470;2022-10-16T10:22:21;9.30;;;1.67;;
64252;SDS011;50592;52.958;-7.470;2022-10-16T10:46:57;1.63;;;0.55;;
64252;SDS011;50592;52.958;-7.470;2022-10-16T10:52:56;7.07;;;1.15;;
64252;SDS011;50592;52.958;-7.470;2022-10-16T11:06:31;3.90;;;0.90;;
64252;SDS011;50592;52.958;-7.470;2022-10-16T11:17:36;7.43;;;0.65;;
64252;SDS011;50592;52.958;-7.470;2022-10-16T11:20:16;3.70;;;0.70;;
64252;SDS011;50592;52.958;-7.470;2022-10-16T11:23:00;2.60;;;1.55;;
64252;SDS011;50592;52.958;-7.470;2022-10-16T11:25:34;5.82;;;1.50;;
64252;SDS011;50592;52.958;-7.470;2022-10-16T11:30:52;6.38;;;0.75;;
64252;SDS011;50592;52.958;-7.470;2022-10-16T11:33:34;12.10;;;1.33;;
64252;SDS011;50592;52.958;-7.470;2022-10-16T11:36:09;2.53;;;0.68;;
64252;SDS011;50592;52.958;-7.470;2022-10-16T11:39:01;6.53;;;1.17;;
64252;SDS011;50592;52.958;-7.470;2022-10-16T11:47:25;5.30;;;0.88;;
64252;SDS011;50592;52.958;-7.470;2022-10-16T11:50:17;3.15;;;0.90;;
64252;SDS011;50592;52.958;-7.470;2022-10-16T11:55:46;6.45;;;1.00;;
64252;SDS011;50592;52.958;-7.470;2022-10-16T11:58:27;3.58;;;0.88;;
64252;SDS011;50592;52.958;-7.470;2022-10-16T12:01:10;5.30;;;0.93;;
64252;SDS011;50592;52.958;-7.470;2022-10-16T12:04:05;5.32;;;1.33;;
64252;SDS011;50592;52.958;-7.470;2022-10-16T12:09:44;4.43;;;0.75;;
64252;SDS011;50592;52.958;-7.470;2022-10-16T12:12:24;6.25;;;0.90;;
64252;SDS011;50592;52.958;-7.470;2022-10-16T12:15:01;7.72;;;0.80;;
64252;SDS011;50592;52.958;-7.470;2022-10-16T12:17:44;3.67;;;0.60;;
64252;SDS011;50592;52.958;-7.470;2022-10-16T12:28:20;10.90;;;1.60;;
64252;SDS011;50592;52.958;-7.470;2022-10-16T12:30:52;10.13;;;3.92;;
64252;SDS011;50592;52.958;-7.470;2022-10-16T12:33:26;9.77;;;3.78;;
64252;SDS011;50592;52.958;-7.470;2022-10-16T12:35:58;6.90;;;2.28;;
64252;SDS011;50592;52.958;-7.470;2022-10-16T12:38:38;2.78;;;1.35;;
64252;SDS011;50592;52.958;-7.470;2022-10-16T12:41:23;4.13;;;1.30;;
64252;SDS011;50592;52.958;-7.470;2022-10-16T12:44:00;10.57;;;5.03;;
64252;SDS011;50592;52.958;-7.470;2022-10-16T12:51:42;9.95;;;2.95;;
64252;SDS011;50592;52.958;-7.470;2022-10-16T12:54:13;5.72;;;1.52;;
64252;SDS011;50592;52.958;-7.470;2022-10-16T12:59:29;2.47;;;0.60;;
64252;SDS011;50592;52.958;-7.470;2022-10-16T13:02:16;3.08;;;0.40;;
64252;SDS011;50592;52.958;-7.470;2022-10-16T13:05:08;4.30;;;0.63;;
64252;SDS011;50592;52.958;-7.470;2022-10-16T13:19:18;5.50;;;1.33;;
64252;SDS011;50592;52.958;-7.470;2022-10-16T13:28:06;4.35;;;0.80;;
64252;SDS011;50592;52.958;-7.470;2022-10-16T13:35:46;1.85;;;0.40;;
64252;SDS011;50592;52.958;-7.470;2022-10-16T13:38:20;2.80;;;0.60;;
64252;SDS011;50592;52.958;-7.470;2022-10-16T13:40:59;6.15;;;0.90;;
64252;SDS011;50592;52.958;-7.470;2022-10-16T13:43:33;2.92;;;0.73;;
64252;SDS011;50592;52.958;-7.470;2022-10-16T13:46:06;4.18;;;0.77;;
64252;SDS011;50592;52.958;-7.470;2022-10-16T13:48:38;3.17;;;1.30;;
64252;SDS011;50592;52.958;-7.470;2022-10-16T13:53:42;5.43;;;0.85;;
64252;SDS011;50592;52.958;-7.470;2022-10-16T13:56:26;5.80;;;1.00;;
64252;SDS011;50592;52.958;-7.470;2022-10-16T13:59:02;4.55;;;0.85;;
64252;SDS011;50592;52.958;-7.470;2022-10-16T14:01:42;3.45;;;0.90;;
64252;SDS011;50592;52.958;-7.470;2022-10-16T14:04:13;3.45;;;0.70;;
64252;SDS011;50592;52.958;-7.470;2022-10-16T14:06:44;7.93;;;1.08;;
64252;SDS011;50592;52.958;-7.470;2022-10-16T14:12:00;3.45;;;0.70;;
64252;SDS011;50592;52.958;-7.470;2022-10-16T14:14:35;5.80;;;0.85;;
64252;SDS011;50592;52.958;-7.470;2022-10-16T14:19:50;5.25;;;0.82;;
64252;SDS011;50592;52.958;-7.470;2022-10-16T14:24:58;2.85;;;1.38;;
64252;SDS011;50592;52.958;-7.470;2022-10-16T14:35:31;6.10;;;0.85;;
64252;SDS011;50592;52.958;-7.470;2022-10-16T14:38:03;9.77;;;1.10;;
64252;SDS011;50592;52.958;-7.470;2022-10-16T14:40:35;2.90;;;0.90;;
64252;SDS011;50592;52.958;-7.470;2022-10-16T14:43:06;3.03;;;0.73;;
64252;SDS011;50592;52.958;-7.470;2022-10-16T14:45:36;3.72;;;1.00;;
64252;SDS011;50592;52.958;-7.470;2022-10-16T14:48:06;4.05;;;1.00;;
64252;SDS011;50592;52.958;-7.470;2022-10-16T14:50:47;8.13;;;1.40;;
64252;SDS011;50592;52.958;-7.470;2022-10-16T14:53:17;7.15;;;0.88;;
64252;SDS011;50592;52.958;-7.470;2022-10-16T14:55:43;8.63;;;1.77;;
64252;SDS011;50592;52.958;-7.470;2022-10-16T14:58:17;8.75;;;1.63;;
64252;SDS011;50592;52.958;-7.470;2022-10-16T15:00:50;6.05;;;1.10;;
64252;SDS011;50592;52.958;-7.470;2022-10-16T15:03:20;8.82;;;0.60;;
64252;SDS011;50592;52.958;-7.470;2022-10-16T15:05:50;6.13;;;1.67;;
64252;SDS011;50592;52.958;-7.470;2022-10-16T15:08:20;10.05;;;1.20;;
64252;SDS011;50592;52.958;-7.470;2022-10-16T15:10:50;7.63;;;1.30;;
64252;SDS011;50592;52.958;-7.470;2022-10-16T15:13:17;7.07;;;0.93;;
64252;SDS011;50592;52.958;-7.470;2022-10-16T15:15:47;5.53;;;1.17;;
64252;SDS011;50592;52.958;-7.470;2022-10-16T15:18:17;8.07;;;1.10;;
64252;SDS011;50592;52.958;-7.470;2022-10-16T15:20:51;4.00;;;0.80;;
64252;SDS011;50592;52.958;-7.470;2022-10-16T15:23:19;10.77;;;1.23;;
64252;SDS011;50592;52.958;-7.470;2022-10-16T15:25:54;9.38;;;1.35;;
64252;SDS011;50592;52.958;-7.470;2022-10-16T15:28:22;9.95;;;1.45;;
64252;SDS011;50592;52.958;-7.470;2022-10-16T15:30:54;5.95;;;1.00;;
64252;SDS011;50592;52.958;-7.470;2022-10-16T15:33:23;8.35;;;1.38;;
64252;SDS011;50592;52.958;-7.470;2022-10-16T15:35:56;5.72;;;1.15;;
64252;SDS011;50592;52.958;-7.470;2022-10-16T15:38:23;10.07;;;1.10;;
64252;SDS011;50592;52.958;-7.470;2022-10-16T15:40:55;7.47;;;1.30;;
64252;SDS011;50592;52.958;-7.470;2022-10-16T15:43:23;10.98;;;1.33;;
64252;SDS011;50592;52.958;-7.470;2022-10-16T15:46:03;7.95;;;1.33;;
64252;SDS011;50592;52.958;-7.470;2022-10-16T15:48:36;7.97;;;1.35;;
64252;SDS011;50592;52.958;-7.470;2022-10-16T15:51:07;7.28;;;0.90;;
64252;SDS011;50592;52.958;-7.470;2022-10-16T15:53:38;6.13;;;1.38;;
64252;SDS011;50592;52.958;-7.470;2022-10-16T15:56:09;12.82;;;1.52;;
64252;SDS011;50592;52.958;-7.470;2022-10-16T15:58:40;9.20;;;1.20;;
64252;SDS011;50592;52.958;-7.470;2022-10-16T16:01:10;6.38;;;1.00;;
64252;SDS011;50592;52.958;-7.470;2022-10-16T16:03:38;6.93;;;1.20;;
64252;SDS011;50592;52.958;-7.470;2022-10-16T16:06:16;5.95;;;1.02;;
64252;SDS011;50592;52.958;-7.470;2022-10-16T16:09:34;9.80;;;1.95;;
64252;SDS011;50592;52.958;-7.470;2022-10-16T16:12:39;6.88;;;1.00;;
64252;SDS011;50592;52.958;-7.470;2022-10-16T16:20:37;8.95;;;1.13;;
64252;SDS011;50592;52.958;-7.470;2022-10-16T16:36:17;11.43;;;1.40;;
64252;SDS011;50592;52.958;-7.470;2022-10-16T16:38:51;9.07;;;1.90;;
64252;SDS011;50592;52.958;-7.470;2022-10-16T16:41:59;6.70;;;1.17;;
64252;SDS011;50592;52.958;-7.470;2022-10-16T16:44:33;7.40;;;1.35;;
64252;SDS011;50592;52.958;-7.470;2022-10-16T16:47:33;6.35;;;0.95;;
64252;SDS011;50592;52.958;-7.470;2022-10-16T16:50:03;10.95;;;1.50;;
64252;SDS011;50592;52.958;-7.470;2022-10-16T16:53:20;5.55;;;1.17;;
64252;SDS011;50592;52.958;-7.470;2022-10-16T16:55:55;7.35;;;1.35;;
64252;SDS011;50592;52.958;-7.470;2022-10-16T16:58:31;8.77;;;1.38;;
64252;SDS011;50592;52.958;-7.470;2022-10-16T17:01:13;6.35;;;1.00;;
64252;SDS011;50592;52.958;-7.470;2022-10-16T17:03:50;10.18;;;1.63;;
64252;SDS011;50592;52.958;-7.470;2022-10-16T17:06:54;10.50;;;1.63;;
64252;SDS011;50592;52.958;-7.470;2022-10-16T17:10:08;7.35;;;1.65;;
64252;SDS011;50592;52.958;-7.470;2022-10-16T17:12:36;10.30;;;1.80;;
64252;SDS011;50592;52.958;-7.470;2022-10-16T17:15:08;11.55;;;1.67;;
64252;SDS011;50592;52.958;-7.470;2022-10-16T17:17:56;9.55;;;1.50;;
64252;SDS011;50592;52.958;-7.470;2022-10-16T17:20:25;11.68;;;2.55;;
64252;SDS011;50592;52.958;-7.470;2022-10-16T17:22:55;10.15;;;1.75;;
64252;SDS011;50592;52.958;-7.470;2022-10-16T17:25:22;10.73;;;1.73;;
64252;SDS011;50592;52.958;-7.470;2022-10-16T17:27:52;14.25;;;1.80;;
64252;SDS011;50592;52.958;-7.470;2022-10-16T17:30:19;9.20;;;1.50;;
64252;SDS011;50592;52.958;-7.470;2022-10-16T17:32:47;12.52;;;2.10;;
64252;SDS011;50592;52.958;-7.470;2022-10-16T17:35:14;12.32;;;1.83;;
64252;SDS011;50592;52.958;-7.470;2022-10-16T17:37:44;18.27;;;2.60;;
64252;SDS011;50592;52.958;-7.470;2022-10-16T17:40:11;11.77;;;2.10;;
64252;SDS011;50592;52.958;-7.470;2022-10-16T17:42:40;6.93;;;1.60;;
64252;SDS011;50592;52.958;-7.470;2022-10-16T17:45:07;9.40;;;1.73;;
64252;SDS011;50592;52.958;-7.470;2022-10-16T17:47:37;11.48;;;2.15;;
64252;SDS011;50592;52.958;-7.470;2022-10-16T17:50:09;18.13;;;1.90;;
64252;SDS011;50592;52.958;-7.470;2022-10-16T17:52:39;8.60;;;1.42;;
64252;SDS011;50592;52.958;-7.470;2022-10-16T17:55:09;13.27;;;1.08;;
64252;SDS011;50592;52.958;-7.470;2022-10-16T17:57:36;8.95;;;1.15;;
64252;SDS011;50592;52.958;-7.470;2022-10-16T18:00:09;7.75;;;1.13;;
64252;SDS011;50592;52.958;-7.470;2022-10-16T18:02:36;9.95;;;1.65;;
64252;SDS011;50592;52.958;-7.470;2022-10-16T18:05:09;10.00;;;2.05;;
64252;SDS011;50592;52.958;-7.470;2022-10-16T18:07:36;9.10;;;1.88;;
64252;SDS011;50592;52.958;-7.470;2022-10-16T18:10:05;8.23;;;1.25;;
64252;SDS011;50592;52.958;-7.470;2022-10-16T18:12:39;11.77;;;1.77;;